Rudnaja Pristan, Russia
Current Conditions -  °F | °C
As of 2:30 PM on Sunday 21 Dec 2014 (Local Time) from UHWW Reporting Station
Few Clouds Few Clouds  
Wind Chill: -4°   Ceiling: Unl
Heat Index: 10°   Visibility: 6mi
Dew Point: -11°   Wind: 11mph
Humidity: 37%   Direction: 330°NNW
Pressure: 29.94"   Gusts: NA
Location:  44.36°N, 135.82°E
Report Text: UHWW 210430Z 33005MPS 9999 FEW200 M12/M24 Q1014 NOSIG RMKQFE759/1012 25410260
Loading
Personal Weather Stations






























Interactive Weather Map New forecast layout! Learn more

10-Day Weather Forecast

Advertisements
Track Severe Weather on mobile